createdAt,value
2023-05-11T00:00:31.531Z,20.55
2023-05-11T00:01:06.039Z,21.48
2023-05-11T00:01:38.549Z,22.92
2023-05-11T00:02:12.808Z,23.02
2023-05-11T00:02:46.467Z,18.25
2023-05-11T00:03:19.297Z,20.75
2023-05-11T00:03:52.079Z,22.00
2023-05-11T00:04:24.853Z,21.35
2023-05-11T00:04:58.598Z,22.05
2023-05-11T00:05:31.337Z,23.98
2023-05-11T00:06:05.152Z,29.48
2023-05-11T00:06:38.057Z,17.58
2023-05-11T00:07:10.720Z,26.35
2023-05-11T00:07:43.384Z,27.35
2023-05-11T00:08:17.578Z,21.52
2023-05-11T00:08:51.976Z,20.95
2023-05-11T00:09:24.578Z,16.27
2023-05-11T00:09:58.215Z,24.63
2023-05-11T00:10:31.210Z,23.13
2023-05-11T00:11:07.465Z,23.58
2023-05-11T00:11:41.167Z,17.38
2023-05-11T00:12:14.289Z,26.05
2023-05-11T00:12:46.815Z,18.30
2023-05-11T00:13:21.748Z,26.00
2023-05-11T00:13:55.746Z,19.55
2023-05-11T00:14:28.440Z,22.75
2023-05-11T00:15:02.074Z,20.02
2023-05-11T00:15:38.325Z,24.08
2023-05-11T00:16:11.440Z,22.35
2023-05-11T00:16:45.181Z,22.60
2023-05-11T00:17:19.573Z,24.77
2023-05-11T00:17:52.157Z,24.30
2023-05-11T00:18:25.976Z,25.58
2023-05-11T00:18:58.721Z,24.70
2023-05-11T00:19:31.790Z,20.55
2023-05-11T00:20:06.408Z,24.13
2023-05-11T00:20:38.962Z,24.05
2023-05-11T00:21:11.530Z,22.85
2023-05-11T00:21:45.274Z,28.40
2023-05-11T00:22:18.035Z,24.25
2023-05-11T00:22:50.599Z,27.95
2023-05-11T00:23:23.239Z,21.85
2023-05-11T00:23:57.127Z,22.92
2023-05-11T00:24:30.054Z,35.75
2023-05-11T00:25:02.740Z,29.27
2023-05-11T00:25:36.482Z,24.67
2023-05-11T00:26:09.101Z,24.95
2023-05-11T00:26:42.371Z,31.27
2023-05-11T00:27:15.943Z,20.80
2023-05-11T00:27:48.737Z,23.63
2023-05-11T00:28:21.330Z,25.17
2023-05-11T00:28:57.542Z,24.15
2023-05-11T00:29:30.112Z,19.05
2023-05-11T00:30:02.754Z,24.90
2023-05-11T00:30:36.484Z,24.92
2023-05-11T00:31:09.114Z,25.40
2023-05-11T00:31:42.267Z,19.85
2023-05-11T00:32:15.912Z,26.25
2023-05-11T00:32:49.288Z,23.52
2023-05-11T00:33:22.338Z,19.23
2023-05-11T00:33:56.762Z,17.42
2023-05-11T00:34:30.360Z,18.20
2023-05-11T00:35:03.024Z,28.75
2023-05-11T00:35:36.500Z,16.73
2023-05-11T00:36:10.421Z,22.27
2023-05-11T00:36:43.716Z,20.45
2023-05-11T00:37:16.295Z,16.83
2023-05-11T00:37:49.859Z,27.45
2023-05-11T00:38:22.359Z,25.50
2023-05-11T00:38:55.328Z,21.65
2023-05-11T00:39:28.999Z,25.00
2023-05-11T00:40:01.631Z,28.20
2023-05-11T00:40:34.496Z,29.30
2023-05-11T00:41:07.397Z,19.92
2023-05-11T00:41:41.345Z,24.05
2023-05-11T00:42:14.035Z,32.63
2023-05-11T00:42:46.608Z,18.95
2023-05-11T00:43:20.149Z,21.40
2023-05-11T00:43:52.739Z,24.60
2023-05-11T00:44:27.069Z,23.98
2023-05-11T00:45:00.604Z,31.35
2023-05-11T00:45:33.490Z,21.40
2023-05-11T00:46:06.855Z,22.85
2023-05-11T00:46:40.792Z,27.65
2023-05-11T00:47:13.744Z,26.75
2023-05-11T00:47:46.901Z,20.80
2023-05-11T00:48:20.600Z,38.92
2023-05-11T00:48:55.792Z,24.15
2023-05-11T00:49:28.734Z,23.83
2023-05-11T00:50:02.519Z,24.17
2023-05-11T00:50:35.388Z,27.50
2023-05-11T00:51:08.254Z,23.83
2023-05-11T00:51:42.029Z,25.35
2023-05-11T00:52:14.917Z,30.58
2023-05-11T00:52:48.460Z,24.52
2023-05-11T00:53:22.253Z,24.98
2023-05-11T00:53:54.871Z,26.33
2023-05-11T00:54:27.886Z,20.75
2023-05-11T00:55:00.816Z,20.02
2023-05-11T00:55:34.465Z,30.85
2023-05-11T00:56:07.614Z,18.83
2023-05-11T00:56:40.636Z,16.98
2023-05-11T00:57:14.439Z,29.40
2023-05-11T00:57:47.476Z,30.23
2023-05-11T00:58:20.813Z,23.23
2023-05-11T00:58:54.498Z,27.48
2023-05-11T00:59:28.516Z,21.48
2023-05-11T01:00:02.844Z,24.77
2023-05-11T01:00:36.856Z,33.58
2023-05-11T01:01:10.603Z,22.85
2023-05-11T01:01:43.950Z,30.88
2023-05-11T01:02:17.744Z,29.58
2023-05-11T01:02:50.450Z,22.40
2023-05-11T01:03:23.203Z,25.17
2023-05-11T01:03:58.004Z,30.50
2023-05-11T01:04:31.665Z,26.00
2023-05-11T01:05:04.737Z,27.42
2023-05-11T01:05:49.607Z,23.92
2023-05-11T01:06:29.517Z,27.58
2023-05-11T01:07:11.334Z,32.40
2023-05-11T01:07:55.738Z,28.75
2023-05-11T01:08:39.413Z,20.30
2023-05-11T01:09:21.662Z,19.58
2023-05-11T01:10:02.789Z,28.65
2023-05-11T01:10:45.911Z,37.92
2023-05-11T01:11:25.115Z,26.70
2023-05-11T01:12:07.544Z,19.67
2023-05-11T01:12:48.313Z,23.23
2023-05-11T01:13:28.576Z,21.40
2023-05-11T01:14:16.866Z,35.65
2023-05-11T01:15:01.677Z,21.85
2023-05-11T01:15:44.902Z,22.58
2023-05-11T01:16:22.564Z,24.50
2023-05-11T01:17:07.069Z,26.05
2023-05-11T01:18:01.730Z,25.08
2023-05-11T01:18:39.927Z,24.95
2023-05-11T01:19:24.706Z,18.00
2023-05-11T01:20:06.211Z,32.67
2023-05-11T01:20:41.135Z,21.80
2023-05-11T01:21:16.018Z,25.92
2023-05-11T01:21:51.224Z,26.83
2023-05-11T01:22:39.249Z,29.70
2023-05-11T01:23:31.921Z,21.35
2023-05-11T01:24:21.634Z,22.30
2023-05-11T01:25:07.244Z,19.83
2023-05-11T01:25:53.512Z,25.67
2023-05-11T01:26:42.691Z,20.17
2023-05-11T01:27:32.036Z,27.48
2023-05-11T01:28:23.433Z,23.15
2023-05-11T01:29:25.117Z,37.30
2023-05-11T01:30:26.411Z,20.17
2023-05-11T01:31:07.117Z,20.48
2023-05-11T01:31:42.651Z,24.90
2023-05-11T01:32:21.250Z,23.58
2023-05-11T01:32:58.992Z,22.63
2023-05-11T01:33:34.428Z,23.02
2023-05-11T01:34:13.467Z,18.25
2023-05-11T01:34:47.638Z,23.67
2023-05-11T01:35:24.552Z,25.80
2023-05-11T01:36:02.833Z,25.00
2023-05-11T01:36:39.401Z,22.13
2023-05-11T01:37:17.712Z,17.85
2023-05-11T01:37:54.234Z,19.85
2023-05-11T01:38:32.916Z,23.55
2023-05-11T01:39:10.166Z,24.90
2023-05-11T01:39:50.981Z,29.00
2023-05-11T01:40:29.362Z,29.27
2023-05-11T01:41:09.126Z,32.67
2023-05-11T01:41:46.110Z,28.48
2023-05-11T01:42:23.731Z,35.85
2023-05-11T01:43:01.591Z,30.67
2023-05-11T01:43:37.219Z,25.23
2023-05-11T01:44:12.580Z,23.75
2023-05-11T01:44:51.886Z,30.27
2023-05-11T01:45:28.264Z,21.63
2023-05-11T01:46:04.095Z,30.90
2023-05-11T01:46:37.010Z,18.55
2023-05-11T01:47:10.791Z,19.92
2023-05-11T01:47:45.991Z,22.30
2023-05-11T01:48:23.914Z,26.88
2023-05-11T01:48:58.654Z,30.88
2023-05-11T01:49:36.232Z,17.80
2023-05-11T01:50:11.145Z,28.80
2023-05-11T01:50:46.133Z,24.58
2023-05-11T01:51:20.245Z,28.58
2023-05-11T01:51:56.289Z,22.35
2023-05-11T01:52:31.045Z,33.47
2023-05-11T01:53:05.436Z,23.20
2023-05-11T01:53:41.239Z,29.55
2023-05-11T01:54:14.756Z,22.60
2023-05-11T01:54:48.899Z,24.80
2023-05-11T01:55:25.008Z,32.47
2023-05-11T01:55:58.531Z,23.98
2023-05-11T01:56:34.758Z,21.70
2023-05-11T01:57:10.285Z,20.40
2023-05-11T01:57:43.689Z,23.55
2023-05-11T01:58:18.344Z,29.10
2023-05-11T01:58:52.974Z,20.35
2023-05-11T01:59:26.955Z,27.83
2023-05-11T02:00:00.299Z,31.08
2023-05-11T02:00:34.903Z,21.48
2023-05-11T02:01:12.247Z,26.75
2023-05-11T02:01:45.192Z,30.27
2023-05-11T02:02:19.974Z,34.70
2023-05-11T02:02:57.861Z,26.50
2023-05-11T02:03:32.084Z,28.92
2023-05-11T02:04:06.063Z,23.92
2023-05-11T02:04:41.617Z,28.83
2023-05-11T02:05:18.656Z,20.70
2023-05-11T02:05:52.744Z,31.10
2023-05-11T02:06:28.371Z,22.40
2023-05-11T02:07:04.145Z,19.38
2023-05-11T02:07:38.674Z,34.50
2023-05-11T02:08:13.909Z,23.23
2023-05-11T02:08:49.911Z,32.38
2023-05-11T02:09:23.921Z,24.00
2023-05-11T02:09:59.139Z,22.35
2023-05-11T02:10:34.572Z,27.95
2023-05-11T02:11:11.627Z,28.63
2023-05-11T02:11:47.316Z,29.13
2023-05-11T02:12:23.790Z,29.48
2023-05-11T02:12:59.547Z,27.50
2023-05-11T02:13:34.925Z,28.75
2023-05-11T02:14:10.198Z,30.70
2023-05-11T02:14:43.687Z,27.67
2023-05-11T02:15:18.763Z,32.17
2023-05-11T02:15:55.868Z,34.03
2023-05-11T02:16:32.711Z,39.72
2023-05-11T02:17:06.768Z,34.90
2023-05-11T02:17:40.296Z,25.88
2023-05-11T02:18:17.051Z,28.92
2023-05-11T02:18:51.590Z,25.33
2023-05-11T02:19:25.200Z,27.35
2023-05-11T02:19:59.042Z,30.40
2023-05-11T02:20:34.710Z,36.70
2023-05-11T02:21:09.458Z,34.92
2023-05-11T02:21:46.161Z,33.75
2023-05-11T02:22:20.726Z,34.13
2023-05-11T02:22:55.099Z,28.10
2023-05-11T02:23:31.088Z,30.95
2023-05-11T02:24:06.612Z,31.85
2023-05-11T02:24:40.125Z,41.15
2023-05-11T02:25:15.320Z,32.10
2023-05-11T02:25:50.201Z,26.00
2023-05-11T02:26:23.370Z,30.10
2023-05-11T02:26:59.085Z,24.30
2023-05-11T02:27:33.110Z,31.83
2023-05-11T02:28:06.251Z,37.85
2023-05-11T02:28:40.018Z,31.20
2023-05-11T02:29:12.712Z,31.38
2023-05-11T02:29:45.323Z,40.65
2023-05-11T02:30:19.351Z,36.58
2023-05-11T02:30:58.459Z,54.28
2023-05-11T02:31:36.803Z,25.50
2023-05-11T02:32:14.002Z,25.85
2023-05-11T02:32:51.732Z,21.40
2023-05-11T02:33:28.584Z,39.20
2023-05-11T02:34:09.160Z,29.48
2023-05-11T02:34:43.950Z,30.08
2023-05-11T02:35:22.345Z,35.45
2023-05-11T02:35:57.816Z,31.15
2023-05-11T02:36:36.052Z,25.25
2023-05-11T02:37:13.417Z,29.75
2023-05-11T02:37:49.590Z,43.03
2023-05-11T02:38:28.890Z,48.63
2023-05-11T02:39:07.274Z,36.83
2023-05-11T02:39:45.480Z,34.58
2023-05-11T02:40:20.217Z,38.05
2023-05-11T02:40:58.859Z,29.15
2023-05-11T02:41:33.569Z,32.38
2023-05-11T02:42:13.313Z,33.28
2023-05-11T02:42:49.901Z,29.80
2023-05-11T02:43:27.063Z,30.05
2023-05-11T02:44:06.650Z,34.85
2023-05-11T02:44:51.178Z,27.58
2023-05-11T02:45:29.484Z,30.02
2023-05-11T02:46:08.115Z,41.35
2023-05-11T02:46:43.417Z,35.03
2023-05-11T02:47:21.200Z,29.98
2023-05-11T02:47:56.345Z,25.77
2023-05-11T02:48:36.411Z,32.55
2023-05-11T02:49:11.640Z,38.70
2023-05-11T02:49:47.416Z,49.47
2023-05-11T02:50:20.926Z,30.42
2023-05-11T02:50:57.615Z,32.00
2023-05-11T02:51:36.270Z,33.85
2023-05-11T02:52:11.019Z,42.05
2023-05-11T02:52:52.708Z,28.10
2023-05-11T02:53:28.138Z,27.73
2023-05-11T02:54:01.799Z,38.28
2023-05-11T02:54:40.452Z,36.72
2023-05-11T02:55:15.355Z,34.30
2023-05-11T02:55:48.831Z,34.83
2023-05-11T02:56:23.182Z,48.55
2023-05-11T02:56:58.623Z,34.70
2023-05-11T02:57:31.958Z,35.58
2023-05-11T02:58:10.643Z,37.30
2023-05-11T02:58:45.682Z,31.73
2023-05-11T02:59:28.360Z,34.22
2023-05-11T03:00:03.888Z,29.38
2023-05-11T03:00:38.862Z,30.65
2023-05-11T03:01:13.903Z,41.17
2023-05-11T03:01:47.999Z,32.58
2023-05-11T03:02:20.915Z,35.00
2023-05-11T03:02:53.787Z,36.58
2023-05-11T03:03:29.560Z,36.28
2023-05-11T03:04:04.980Z,34.60
2023-05-11T03:04:38.764Z,35.92
2023-05-11T03:05:12.382Z,36.55
2023-05-11T03:05:45.076Z,34.78
2023-05-11T03:06:17.698Z,48.00
2023-05-11T03:06:52.007Z,43.70
2023-05-11T03:07:24.922Z,35.92
2023-05-11T03:07:59.859Z,33.03
2023-05-11T03:08:32.560Z,43.08
2023-05-11T03:09:10.242Z,38.30
2023-05-11T03:09:47.864Z,31.15
2023-05-11T03:10:21.408Z,47.20
2023-05-11T03:10:56.188Z,41.92
2023-05-11T03:11:29.357Z,29.88
2023-05-11T03:12:02.757Z,42.55
2023-05-11T03:12:39.211Z,41.22
2023-05-11T03:13:13.409Z,28.67
2023-05-11T03:13:46.722Z,25.92
2023-05-11T03:14:23.850Z,38.72
2023-05-11T03:14:56.663Z,30.27
2023-05-11T03:15:29.600Z,33.25
2023-05-11T03:16:04.042Z,38.97
2023-05-11T03:16:40.729Z,41.42
2023-05-11T03:17:15.177Z,39.80
2023-05-11T03:17:50.321Z,25.08
2023-05-11T03:18:23.671Z,44.00
2023-05-11T03:18:57.716Z,52.80
2023-05-11T03:19:33.030Z,40.65
2023-05-11T03:20:08.554Z,36.38
2023-05-11T03:20:43.412Z,32.88
2023-05-11T03:21:20.895Z,41.25
2023-05-11T03:21:54.621Z,34.65
2023-05-11T03:22:29.098Z,31.70
2023-05-11T03:23:02.363Z,45.13
2023-05-11T03:23:36.419Z,42.33
2023-05-11T03:24:10.624Z,40.05
2023-05-11T03:24:44.038Z,39.78
2023-05-11T03:25:17.539Z,41.13
2023-05-11T03:25:52.431Z,43.03
2023-05-11T03:26:28.641Z,49.20
2023-05-11T03:27:04.965Z,37.08
2023-05-11T03:27:42.503Z,54.17
2023-05-11T03:28:17.728Z,62.92
2023-05-11T03:29:01.339Z,49.83
2023-05-11T03:29:38.651Z,46.92
2023-05-11T03:30:14.168Z,36.40
2023-05-11T03:30:52.261Z,42.70
2023-05-11T03:31:25.902Z,58.78
2023-05-11T03:32:00.347Z,43.15
2023-05-11T03:32:34.254Z,42.05
2023-05-11T03:33:08.792Z,31.65
2023-05-11T03:33:41.491Z,37.58
2023-05-11T03:34:14.889Z,30.17
2023-05-11T03:34:50.788Z,37.78
2023-05-11T03:35:29.442Z,34.15
2023-05-11T03:36:04.959Z,34.63
2023-05-11T03:36:41.763Z,33.75
2023-05-11T03:37:18.007Z,51.65
2023-05-11T03:37:53.004Z,35.00
2023-05-11T03:38:30.082Z,31.90
2023-05-11T03:39:04.606Z,40.33
2023-05-11T03:39:39.842Z,31.70
2023-05-11T03:40:16.416Z,39.65
2023-05-11T03:40:56.313Z,37.67
2023-05-11T03:41:32.404Z,47.92
2023-05-11T03:42:08.204Z,32.40
2023-05-11T03:42:43.791Z,30.30
2023-05-11T03:43:19.493Z,44.38
2023-05-11T03:43:55.924Z,40.85
2023-05-11T03:44:32.020Z,35.42
2023-05-11T03:45:08.141Z,46.65
2023-05-11T03:45:44.448Z,45.05
2023-05-11T03:46:20.932Z,47.90
2023-05-11T03:46:54.925Z,50.13
2023-05-11T03:47:32.593Z,42.53
2023-05-11T03:48:07.202Z,54.50
2023-05-11T03:48:41.060Z,36.92
2023-05-11T03:49:15.369Z,36.30
2023-05-11T03:49:48.920Z,41.22
2023-05-11T03:50:22.120Z,38.60
2023-05-11T03:50:56.759Z,47.17
2023-05-11T03:51:31.942Z,34.72
2023-05-11T03:52:05.805Z,29.63
2023-05-11T03:52:40.291Z,33.80
2023-05-11T03:53:13.585Z,33.20
2023-05-11T03:53:46.580Z,30.75
2023-05-11T03:54:22.214Z,30.40
2023-05-11T03:54:55.033Z,33.38
2023-05-11T03:55:27.800Z,28.05
2023-05-11T03:56:02.001Z,30.77
2023-05-11T03:56:36.910Z,21.85
2023-05-11T03:57:09.781Z,21.80
2023-05-11T03:57:44.216Z,24.13
2023-05-11T03:58:17.351Z,18.08
2023-05-11T03:58:51.017Z,23.42
2023-05-11T03:59:25.264Z,30.85
2023-05-11T03:59:58.000Z,35.75
2023-05-11T04:00:31.053Z,31.35
2023-05-11T04:01:04.326Z,25.63
2023-05-11T04:01:38.215Z,18.52
2023-05-11T04:02:11.063Z,40.00
2023-05-11T04:02:45.315Z,24.60
2023-05-11T04:03:19.753Z,20.50
2023-05-11T04:03:53.911Z,24.88
2023-05-11T04:04:31.501Z,20.98
2023-05-11T04:05:09.352Z,27.88
2023-05-11T04:05:41.951Z,24.73
2023-05-11T04:06:18.588Z,17.00
2023-05-11T04:06:57.821Z,20.27
2023-05-11T04:07:33.059Z,16.63
2023-05-11T04:08:06.560Z,20.63
2023-05-11T04:08:40.532Z,18.60
2023-05-11T04:09:13.296Z,23.90
2023-05-11T04:09:46.258Z,13.98
2023-05-11T04:10:20.151Z,24.05
2023-05-11T04:10:53.303Z,20.85
2023-05-11T04:11:27.745Z,25.92
2023-05-11T04:12:01.747Z,16.55
2023-05-11T04:12:34.735Z,16.25
2023-05-11T04:13:07.429Z,21.58
2023-05-11T04:13:41.113Z,26.48
2023-05-11T04:14:13.875Z,21.73
2023-05-11T04:14:47.845Z,19.83
2023-05-11T04:15:21.620Z,18.55
2023-05-11T04:15:54.458Z,20.10
2023-05-11T04:16:27.174Z,17.50
2023-05-11T04:17:01.697Z,25.20
2023-05-11T04:17:34.304Z,22.95
2023-05-11T04:18:08.458Z,19.17
2023-05-11T04:18:41.314Z,33.17
2023-05-11T04:19:16.521Z,18.90
2023-05-11T04:19:49.254Z,24.40
2023-05-11T04:20:23.008Z,20.67
2023-05-11T04:20:55.983Z,23.42
2023-05-11T04:21:28.534Z,17.92
2023-05-11T04:22:02.211Z,21.30
2023-05-11T04:22:34.884Z,18.08
2023-05-11T04:23:10.298Z,15.45
2023-05-11T04:23:44.255Z,27.83
2023-05-11T04:24:16.864Z,27.42
2023-05-11T04:24:49.383Z,19.90
2023-05-11T04:25:21.998Z,22.65
2023-05-11T04:25:55.746Z,15.05
2023-05-11T04:26:28.603Z,17.55
2023-05-11T04:27:04.216Z,23.67
2023-05-11T04:27:38.010Z,14.55
2023-05-11T04:28:10.763Z,17.40
2023-05-11T04:28:43.666Z,16.95
2023-05-11T04:29:17.411Z,20.27
2023-05-11T04:29:50.006Z,13.90
2023-05-11T04:30:24.314Z,14.88
2023-05-11T04:30:57.796Z,19.70
2023-05-11T04:31:30.642Z,16.70
2023-05-11T04:32:06.622Z,19.30
2023-05-11T04:32:39.411Z,19.27
2023-05-11T04:33:14.694Z,15.93
2023-05-11T04:33:49.705Z,18.63
2023-05-11T04:34:22.811Z,17.25
2023-05-11T04:34:55.591Z,21.95
2023-05-11T04:35:31.430Z,17.85
2023-05-11T04:36:04.625Z,15.55
2023-05-11T04:36:37.230Z,14.15
2023-05-11T04:37:10.862Z,24.73
2023-05-11T04:37:44.540Z,20.90
2023-05-11T04:38:17.939Z,20.55
2023-05-11T04:38:53.406Z,19.60
2023-05-11T04:39:26.844Z,16.70
2023-05-11T04:39:59.616Z,11.60
2023-05-11T04:40:34.991Z,15.20
2023-05-11T04:41:08.950Z,13.77
2023-05-11T04:41:43.689Z,11.45
2023-05-11T04:42:16.327Z,10.57
2023-05-11T04:42:52.098Z,18.63
2023-05-11T04:43:26.614Z,13.05
2023-05-11T04:44:00.005Z,11.23
2023-05-11T04:44:33.173Z,11.00
2023-05-11T04:45:07.898Z,15.15
2023-05-11T04:45:40.707Z,11.95
2023-05-11T04:46:16.271Z,22.73
2023-05-11T04:46:50.161Z,14.32
2023-05-11T04:47:22.827Z,14.85
2023-05-11T04:47:58.713Z,13.50
2023-05-11T04:48:34.344Z,14.90
2023-05-11T04:49:07.171Z,16.20
2023-05-11T04:49:41.943Z,11.10
2023-05-11T04:50:15.514Z,13.48
2023-05-11T04:50:48.173Z,10.90
2023-05-11T04:51:22.701Z,11.60
2023-05-11T04:51:57.161Z,12.13
2023-05-11T04:52:29.709Z,10.45
2023-05-11T04:53:02.298Z,17.08
2023-05-11T04:53:36.522Z,11.13
2023-05-11T04:54:10.469Z,11.93
2023-05-11T04:54:44.088Z,11.32
2023-05-11T04:55:17.031Z,15.73
2023-05-11T04:55:49.818Z,13.40
2023-05-11T04:56:23.473Z,12.13
2023-05-11T04:56:57.057Z,12.48
2023-05-11T04:57:29.828Z,13.00
2023-05-11T04:58:04.031Z,12.82
2023-05-11T04:58:36.602Z,14.93
2023-05-11T04:59:09.114Z,11.70
2023-05-11T04:59:43.003Z,15.65
2023-05-11T05:00:17.843Z,10.05
2023-05-11T05:00:51.021Z,13.18
2023-05-11T05:01:25.905Z,18.48
2023-05-11T05:01:58.462Z,10.52
2023-05-11T05:02:31.114Z,11.32
2023-05-11T05:03:05.019Z,20.17
2023-05-11T05:03:39.958Z,12.55
2023-05-11T05:04:12.692Z,12.38
2023-05-11T05:04:46.370Z,14.02
2023-05-11T05:05:19.212Z,14.70
2023-05-11T05:05:51.798Z,14.18
2023-05-11T05:06:28.165Z,10.55
2023-05-11T05:07:00.884Z,13.07
2023-05-11T05:07:33.485Z,12.70
2023-05-11T05:08:07.629Z,13.55
2023-05-11T05:08:40.366Z,9.35
2023-05-11T05:09:13.272Z,11.35
2023-05-11T05:09:46.883Z,14.82
2023-05-11T05:10:22.101Z,8.50
2023-05-11T05:10:54.804Z,13.77
2023-05-11T05:11:28.706Z,11.32
2023-05-11T05:12:01.961Z,11.85
2023-05-11T05:12:34.608Z,14.02
2023-05-11T05:13:08.489Z,14.10
2023-05-11T05:13:41.410Z,14.07
2023-05-11T05:14:14.062Z,13.45
2023-05-11T05:14:47.660Z,13.50
2023-05-11T05:15:21.451Z,13.27
2023-05-11T05:15:54.156Z,12.07
2023-05-11T05:16:29.012Z,15.50
2023-05-11T05:17:02.785Z,11.27
2023-05-11T05:17:35.652Z,14.18
2023-05-11T05:18:10.050Z,14.85
2023-05-11T05:18:45.676Z,13.65
2023-05-11T05:19:18.410Z,13.13
2023-05-11T05:19:52.011Z,14.93
2023-05-11T05:20:24.609Z,13.57
2023-05-11T05:20:57.210Z,13.43
2023-05-11T05:21:32.432Z,9.73
2023-05-11T05:22:05.521Z,12.60
2023-05-11T05:22:38.477Z,10.43
2023-05-11T05:23:12.381Z,10.55
2023-05-11T05:23:44.887Z,10.77
2023-05-11T05:24:17.499Z,12.52
2023-05-11T05:24:50.461Z,13.52
2023-05-11T05:25:24.220Z,13.85
2023-05-11T05:25:56.791Z,8.00
2023-05-11T05:26:29.819Z,12.05
2023-05-11T05:27:04.124Z,9.73
2023-05-11T05:27:36.975Z,12.23
2023-05-11T05:28:12.877Z,12.63
2023-05-11T05:28:46.514Z,12.00
2023-05-11T05:29:21.190Z,8.73
2023-05-11T05:29:54.492Z,12.40
2023-05-11T05:30:30.499Z,9.88
2023-05-11T05:31:03.184Z,13.57
2023-05-11T05:31:36.160Z,11.27
2023-05-11T05:32:09.903Z,12.80
2023-05-11T05:32:42.731Z,16.05
2023-05-11T05:33:15.878Z,19.98
2023-05-11T05:33:51.201Z,11.27
2023-05-11T05:34:24.078Z,15.38
2023-05-11T05:34:56.657Z,10.60
2023-05-11T05:35:30.290Z,12.23
2023-05-11T05:36:03.513Z,13.77
2023-05-11T05:36:36.438Z,8.57
2023-05-11T05:37:10.098Z,10.73
2023-05-11T05:37:42.750Z,15.02
2023-05-11T05:38:15.552Z,12.20
2023-05-11T05:38:51.185Z,11.65
2023-05-11T05:39:24.792Z,17.08
2023-05-11T05:40:00.592Z,11.63
2023-05-11T05:40:37.581Z,11.48
2023-05-11T05:41:10.255Z,10.90
2023-05-11T05:41:45.941Z,12.15
2023-05-11T05:42:20.078Z,8.75
2023-05-11T05:42:53.098Z,13.02
2023-05-11T05:43:30.458Z,10.82
2023-05-11T05:44:04.148Z,17.63
2023-05-11T05:44:37.598Z,12.32
2023-05-11T05:45:14.560Z,9.02
2023-05-11T05:45:47.681Z,12.00
2023-05-11T05:46:21.795Z,12.82
2023-05-11T05:46:55.405Z,14.60
2023-05-11T05:47:30.534Z,14.77
2023-05-11T05:48:06.268Z,9.60
2023-05-11T05:48:39.840Z,9.95
2023-05-11T05:49:15.144Z,17.60
2023-05-11T05:49:48.406Z,12.63
2023-05-11T05:50:20.997Z,13.13
2023-05-11T05:50:54.846Z,11.38
2023-05-11T05:51:27.523Z,11.15
2023-05-11T05:52:00.498Z,21.85
2023-05-11T05:52:34.360Z,13.48
2023-05-11T05:53:08.138Z,14.15
2023-05-11T05:53:41.759Z,11.18
2023-05-11T05:54:16.471Z,15.13
2023-05-11T05:54:49.383Z,13.07
2023-05-11T05:55:22.583Z,16.25
2023-05-11T05:55:57.286Z,13.27
2023-05-11T05:56:30.225Z,15.13
2023-05-11T05:57:02.766Z,11.30
2023-05-11T05:57:36.778Z,16.00
2023-05-11T05:58:10.233Z,11.68
2023-05-11T05:58:43.583Z,12.93
2023-05-11T05:59:19.707Z,14.23
2023-05-11T05:59:52.371Z,15.02
2023-05-11T06:00:26.201Z,12.10
2023-05-11T06:01:08.210Z,13.18
2023-05-11T06:01:46.154Z,13.48
2023-05-11T06:02:20.612Z,16.30
2023-05-11T06:02:54.922Z,15.25
2023-05-11T06:03:31.585Z,14.55
2023-05-11T06:04:05.700Z,11.55
2023-05-11T06:04:40.175Z,16.60
2023-05-11T06:05:12.873Z,9.02
2023-05-11T06:05:49.370Z,11.07
2023-05-11T06:06:21.954Z,9.82
2023-05-11T06:06:56.120Z,12.25
2023-05-11T06:07:30.381Z,9.05
2023-05-11T06:08:43.580Z,11.18
2023-05-11T06:09:17.625Z,12.75
2023-05-11T06:09:53.110Z,8.68
2023-05-11T06:10:26.211Z,9.82
2023-05-11T06:10:59.861Z,12.98
2023-05-11T06:11:32.445Z,8.45
2023-05-11T06:12:06.266Z,8.68
2023-05-11T06:12:42.728Z,10.82
2023-05-11T06:13:15.859Z,9.88
2023-05-11T06:13:52.093Z,7.75
2023-05-11T06:14:25.043Z,9.32
2023-05-11T06:14:58.362Z,13.00
2023-05-11T06:15:32.457Z,11.93
2023-05-11T06:16:13.262Z,7.97
2023-05-11T06:16:47.076Z,10.18
2023-05-11T06:17:19.750Z,14.68
2023-05-11T06:17:53.424Z,10.15
2023-05-11T06:18:26.511Z,8.43
2023-05-11T06:19:00.932Z,5.88
2023-05-11T06:19:34.385Z,16.80
2023-05-11T06:20:11.217Z,11.98
2023-05-11T06:20:43.722Z,10.00
2023-05-11T06:21:18.881Z,9.88
2023-05-11T06:21:51.663Z,13.63
2023-05-11T06:22:25.125Z,9.88
2023-05-11T06:22:58.904Z,8.48
2023-05-11T06:23:32.047Z,12.82
2023-05-11T06:24:07.216Z,8.32
2023-05-11T06:24:41.344Z,11.98
2023-05-11T06:25:14.112Z,14.73
2023-05-11T06:25:47.857Z,11.45
2023-05-11T06:26:21.517Z,10.32
2023-05-11T06:26:55.207Z,10.45
2023-05-11T06:27:29.691Z,10.55
2023-05-11T06:28:03.658Z,8.07
2023-05-11T06:28:36.520Z,9.13
2023-05-11T06:29:13.480Z,11.35
2023-05-11T06:29:46.940Z,13.27
2023-05-11T06:30:20.809Z,8.52
2023-05-11T06:30:59.323Z,8.57
2023-05-11T06:31:34.451Z,8.40
2023-05-11T06:32:07.558Z,13.00
2023-05-11T06:32:41.405Z,12.55
2023-05-11T06:33:14.516Z,15.70
2023-05-11T06:33:47.594Z,7.95
2023-05-11T06:34:28.539Z,8.52
2023-05-11T06:35:02.762Z,11.55
2023-05-11T06:35:38.698Z,6.03
2023-05-11T06:36:18.223Z,10.57
2023-05-11T06:36:51.819Z,8.15
2023-05-11T06:37:24.479Z,10.48
2023-05-11T06:37:58.475Z,11.35
2023-05-11T06:38:31.573Z,6.75
2023-05-11T06:39:06.964Z,5.93
2023-05-11T06:39:40.253Z,6.90
2023-05-11T06:40:16.571Z,9.05
2023-05-11T06:40:54.078Z,6.82
2023-05-11T06:41:26.909Z,7.88
2023-05-11T06:42:04.246Z,3.95
2023-05-11T06:42:41.085Z,7.90
2023-05-11T06:43:15.726Z,7.43
2023-05-11T06:43:52.128Z,8.95
2023-05-11T06:44:34.289Z,7.85
2023-05-11T06:45:08.478Z,5.32
2023-05-11T06:45:42.764Z,6.55
2023-05-11T06:46:18.154Z,7.60
2023-05-11T06:46:52.276Z,6.68
2023-05-11T06:47:25.360Z,7.97
2023-05-11T06:47:58.183Z,6.55
2023-05-11T06:48:32.123Z,9.02
2023-05-11T06:49:05.036Z,6.53
2023-05-11T06:49:38.844Z,9.65
2023-05-11T06:50:11.877Z,4.53
2023-05-11T06:50:47.172Z,6.90
2023-05-11T06:51:22.108Z,6.18
2023-05-11T06:51:54.885Z,12.70
2023-05-11T06:52:29.488Z,7.80
2023-05-11T06:53:02.430Z,7.38
2023-05-11T06:53:35.720Z,8.35
2023-05-11T06:54:09.666Z,5.32
2023-05-11T06:54:42.932Z,7.53
2023-05-11T06:55:16.904Z,9.18
2023-05-11T06:55:49.743Z,10.02
2023-05-11T06:56:22.731Z,13.20
2023-05-11T06:56:56.529Z,7.97
2023-05-11T06:57:29.331Z,8.50
2023-05-11T06:58:02.236Z,8.52
2023-05-11T06:58:36.046Z,4.05
2023-05-11T06:59:08.802Z,4.88
2023-05-11T06:59:42.615Z,11.68
2023-05-11T07:00:16.154Z,9.40
2023-05-11T07:00:50.325Z,6.97
2023-05-11T07:01:23.269Z,8.80
2023-05-11T07:01:56.346Z,5.63
2023-05-11T07:02:30.396Z,6.43
2023-05-11T07:03:03.339Z,5.50
2023-05-11T07:03:37.485Z,6.00
2023-05-11T07:04:10.426Z,7.13
2023-05-11T07:04:43.366Z,11.70
2023-05-11T07:05:16.301Z,20.52
2023-05-11T07:05:51.512Z,7.03
2023-05-11T07:06:24.394Z,9.13
2023-05-11T07:06:57.391Z,5.05
2023-05-11T07:07:31.350Z,6.03
2023-05-11T07:08:05.000Z,5.03
2023-05-11T07:08:37.892Z,4.60
2023-05-11T07:09:11.925Z,7.90
2023-05-11T07:09:44.879Z,5.90
2023-05-11T07:10:18.029Z,8.85
2023-05-11T07:10:52.222Z,6.53
2023-05-11T07:11:25.785Z,7.30
2023-05-11T07:11:59.673Z,8.45
2023-05-11T07:12:32.470Z,11.85
2023-05-11T07:13:05.705Z,11.55
2023-05-11T07:13:39.609Z,8.35
2023-05-11T07:14:12.460Z,7.90
2023-05-11T07:14:46.468Z,11.75
2023-05-11T07:15:19.310Z,8.18
2023-05-11T07:15:52.109Z,7.65
2023-05-11T07:16:25.996Z,7.93
2023-05-11T07:16:58.949Z,6.20
2023-05-11T07:17:31.969Z,9.27
2023-05-11T07:18:05.994Z,13.27
2023-05-11T07:18:38.879Z,11.35
2023-05-11T07:19:11.913Z,10.80
2023-05-11T07:19:45.922Z,17.02
2023-05-11T07:20:18.920Z,10.95
2023-05-11T07:20:53.364Z,13.00
2023-05-11T07:21:27.335Z,9.52
2023-05-11T07:22:01.935Z,5.95
2023-05-11T07:22:34.828Z,10.77
2023-05-11T07:23:08.617Z,9.05
2023-05-11T07:23:41.849Z,8.73
2023-05-11T07:24:15.823Z,10.02
2023-05-11T07:24:48.598Z,6.93
2023-05-11T07:25:21.445Z,10.50
2023-05-11T07:25:57.590Z,8.88
2023-05-11T07:26:30.480Z,8.57
2023-05-11T07:27:03.367Z,9.32
2023-05-11T07:27:37.266Z,5.72
2023-05-11T07:28:10.068Z,7.07
2023-05-11T07:28:44.005Z,8.85
2023-05-11T07:29:16.942Z,5.40
2023-05-11T07:29:50.775Z,9.73
2023-05-11T07:30:24.624Z,12.65
2023-05-11T07:30:57.870Z,7.35
2023-05-11T07:31:30.758Z,10.55
2023-05-11T07:32:04.671Z,9.50